CYAB

Arctic Bay

Arctic Bay, , Canada
METAR CYAB 202300Z 00000KT 15SM FEW220 M29/M32 A3006 RMK CI1 CI TR -26.0/-30.4/0.0/SNW CVR/MUCH LOOSE/LAST STFD OBS/NEXT 221200Z/ FROIN SLP185
Observed Flight Rules
Jan-20 @ 23:00 UTC (19 hours ago) Visual Flight Rules
Wind Visibility Clouds
Calm 15 miles
  • Few at 22,000' AGL
Temperatures Readings
Current -29°C / -20°F
Dewpoint -32°C / -26°F
Humidity 75%
Altimeter 30.06" Hg
Pressure 1018.5 hPa
Elevation 22
METAR CYAB 202300Z 00000KT 15SM FEW220 M29/M32 A3006 RMK CI1 CI TR -26.0/-30.4/0.0/SNW CVR/MUCH LOOSE/LAST STFD OBS/NEXT 221200Z/ FROIN SLP185
Observed Flight Rules
Jan-20 @ 23:00 UTC
(19 hours ago)
VFR
Wind Visibility
Calm 15 miles
Clouds
  • Few at 22,000' AGL
Temperature Dewpoint
-29°C / -20°F -32°C / -26°F
Humidity Altimeter Pressure
75% 30.06" Hg 1018.5 hPa